Time;durP1;ratioP1;P1;durP2;ratioP2;P2;SDS_P1;SDS_P2;PMS_P1;PMS_P2;Temp;Humidity;BMP_temperature;BMP_pressure;BME280_temperature;BME280_humidity;BME280_pressure;Samples;Min_cycle;Max_cycle;Signal;HPM_P1;HPM_P2
2021/09/13 00:01:24;;;;;;;13.75;8.50;;;18.00;99.90;;;;;;7403095;19;20022;-81
2021/09/13 00:03:56;;;;;;;12.73;8.27;;;17.90;99.90;;;;;;7405460;19;20010;-81
2021/09/13 00:06:26;;;;;;;14.07;8.52;;;17.80;99.90;;;;;;7411054;19;20015;-82
2021/09/13 00:08:55;;;;;;;16.23;8.80;;;18.00;99.90;;;;;;7415911;19;20014;-81
2021/09/13 00:11:25;;;;;;;13.30;8.50;;;18.00;99.90;;;;;;7404934;19;20011;-83
2021/09/13 00:13:56;;;;;;;10.80;7.70;;;18.10;99.90;;;;;;7404813;19;20313;-81
2021/09/13 00:16:28;;;;;;;12.10;7.60;;;18.10;99.90;;;;;;7404758;19;20010;-81
2021/09/13 00:19:00;;;;;;;12.55;7.88;;;18.20;99.90;;;;;;7402438;19;20011;-83
2021/09/13 00:21:29;;;;;;;14.82;7.78;;;18.00;99.90;;;;;;7403500;19;20026;-83
2021/09/13 00:23:59;;;;;;;14.80;7.65;;;18.10;99.90;;;;;;7409237;19;20030;-82
2021/09/13 00:26:31;;;;;;;12.25;7.65;;;18.00;99.90;;;;;;7408817;19;20002;-81
2021/09/13 00:29:06;;;;;;;16.23;8.35;;;17.70;99.90;;;;;;7404495;19;20030;-82
2021/09/13 00:31:42;;;;;;;12.02;7.57;;;17.80;99.90;;;;;;7403573;19;20313;-83
2021/09/13 00:34:12;;;;;;;16.33;8.10;;;17.80;99.90;;;;;;7400822;19;20428;-83
2021/09/13 00:36:43;;;;;;;16.23;8.32;;;17.80;99.90;;;;;;7403427;19;20011;-84
2021/09/13 00:39:13;;;;;;;21.63;9.32;;;17.80;99.90;;;;;;7403473;19;20038;-83
2021/09/13 00:41:43;;;;;;;15.52;8.40;;;17.70;99.90;;;;;;7402908;19;20432;-84
2021/09/13 00:44:14;;;;;;;18.38;9.15;;;17.70;99.90;;;;;;7400589;19;20078;-83
2021/09/13 00:46:46;;;;;;;15.00;8.52;;;17.70;99.90;;;;;;7412289;19;20034;-84
2021/09/13 00:49:15;;;;;;;20.15;8.60;;;17.60;99.90;;;;;;7428346;19;20031;-82
2021/09/13 00:51:45;;;;;;;15.38;8.35;;;17.60;99.90;;;;;;7411562;19;20353;-83
2021/09/13 00:54:15;;;;;;;16.48;7.80;;;17.60;99.90;;;;;;7400925;19;20321;-82
2021/09/13 00:56:45;;;;;;;14.00;8.30;;;17.50;99.90;;;;;;7401827;19;20011;-82
2021/09/13 00:59:18;;;;;;;13.48;7.90;;;17.50;99.90;;;;;;7404049;19;20305;-82
2021/09/13 01:01:50;;;;;;;14.65;8.50;;;17.60;99.90;;;;;;7401964;19;20007;-83
2021/09/13 01:04:19;;;;;;;14.85;8.20;;;17.70;99.90;;;;;;7402185;19;20022;-84
2021/09/13 01:06:49;;;;;;;15.70;9.43;;;17.80;99.90;;;;;;7402043;19;20035;-83
2021/09/13 01:09:20;;;;;;;16.02;8.88;;;17.70;99.90;;;;;;7403380;19;20046;-83
2021/09/13 01:11:52;;;;;;;15.10;8.63;;;17.70;99.90;;;;;;7402106;19;20429;-82
2021/09/13 01:14:22;;;;;;;15.38;9.40;;;17.70;99.90;;;;;;7399797;19;20017;-82
2021/09/13 01:16:54;;;;;;;16.65;8.65;;;17.70;99.90;;;;;;7399886;19;20033;-82
2021/09/13 01:19:23;;;;;;;13.27;7.50;;;17.60;99.90;;;;;;7401809;19;20583;-82
2021/09/13 01:21:54;;;;;;;12.35;7.10;;;17.60;99.90;;;;;;7401771;19;20003;-82
2021/09/13 01:24:26;;;;;;;13.68;7.75;;;17.60;99.90;;;;;;7399122;19;20017;-82
2021/09/13 01:27:01;;;;;;;13.13;7.75;;;17.60;99.90;;;;;;7403606;19;20010;-80
2021/09/13 01:29:30;;;;;;;14.45;8.25;;;17.80;99.90;;;;;;7422728;19;20025;-79
2021/09/13 01:32:00;;;;;;;14.10;8.15;;;17.90;99.90;;;;;;7422842;19;20011;-79
2021/09/13 01:34:37;;;;;;;15.55;8.27;;;17.90;99.90;;;;;;7417632;19;20010;-80
2021/09/13 01:37:06;;;;;;;14.02;7.88;;;17.80;99.90;;;;;;7404152;19;20010;-80
2021/09/13 01:39:40;;;;;;;12.88;8.10;;;17.70;99.90;;;;;;7404226;19;20011;-80
2021/09/13 01:42:11;;;;;;;20.05;8.07;;;17.90;99.90;;;;;;7412573;19;20047;-79
2021/09/13 01:44:45;;;;;;;16.10;8.18;;;17.90;99.90;;;;;;7411012;19;20002;-78
2021/09/13 01:47:17;;;;;;;13.75;8.00;;;17.90;99.90;;;;;;7407210;19;20037;-78
2021/09/13 01:49:51;;;;;;;15.60;8.15;;;17.80;99.90;;;;;;7403730;19;20022;-80
2021/09/13 01:52:20;;;;;;;14.05;8.35;;;17.70;99.90;;;;;;7397838;19;20015;-79
2021/09/13 01:54:53;;;;;;;14.20;8.23;;;17.70;99.90;;;;;;7399207;19;20011;-80
2021/09/13 01:57:25;;;;;;;16.10;8.35;;;17.80;99.90;;;;;;7398723;19;20029;-79
2021/09/13 01:59:55;;;;;;;12.55;7.60;;;17.90;99.90;;;;;;7401348;19;20003;-80
2021/09/13 02:02:25;;;;;;;13.85;7.97;;;17.90;99.90;;;;;;7397485;19;20086;-79
2021/09/13 02:04:55;;;;;;;11.80;7.22;;;17.80;99.90;;;;;;7399441;19;20011;-79
2021/09/13 02:07:25;;;;;;;12.88;6.78;;;17.70;99.90;;;;;;7401548;19;20018;-79
2021/09/13 02:10:00;;;;;;;11.70;6.70;;;17.60;99.90;;;;;;7400806;19;20048;-80
2021/09/13 02:12:30;;;;;;;12.75;7.95;;;17.60;99.90;;;;;;7400553;19;20021;-80
2021/09/13 02:15:00;;;;;;;11.32;7.22;;;17.60;99.90;;;;;;7400191;19;20011;-79
2021/09/13 02:17:29;;;;;;;14.45;8.43;;;17.60;99.90;;;;;;7398489;19;20042;-79
2021/09/13 02:19:59;;;;;;;11.75;7.72;;;17.80;99.90;;;;;;7404064;19;20011;-78
2021/09/13 02:22:28;;;;;;;15.45;9.02;;;17.80;99.90;;;;;;7409952;19;20018;-77
2021/09/13 02:25:02;;;;;;;15.55;8.02;;;17.70;99.90;;;;;;7412489;19;20011;-78
2021/09/13 02:27:32;;;;;;;13.77;8.65;;;17.60;99.90;;;;;;7409093;19;20025;-78
2021/09/13 02:30:02;;;;;;;13.52;7.80;;;17.60;99.90;;;;;;7407583;19;20011;-80
2021/09/13 02:32:33;;;;;;;23.73;8.05;;;17.50;99.90;;;;;;7406379;19;20015;-78
2021/09/13 02:35:07;;;;;;;14.75;8.60;;;17.40;99.90;;;;;;7407278;19;20074;-78
2021/09/13 02:37:40;;;;;;;13.55;7.97;;;17.40;99.90;;;;;;7404252;19;20018;-79
2021/09/13 02:40:17;;;;;;;16.25;8.20;;;17.30;99.90;;;;;;7398198;19;20013;-80
2021/09/13 02:42:49;;;;;;;12.63;7.05;;;17.20;99.90;;;;;;7398659;19;20015;-78
2021/09/13 02:45:19;;;;;;;13.43;8.10;;;17.10;99.90;;;;;;7399171;19;20021;-81
2021/09/13 02:47:49;;;;;;;14.70;7.72;;;17.00;99.90;;;;;;7399633;19;20015;-78
2021/09/13 02:50:23;;;;;;;15.20;7.80;;;16.90;99.90;;;;;;7396722;19;20017;-78
2021/09/13 02:52:52;;;;;;;19.10;8.55;;;16.90;99.90;;;;;;7397515;19;20015;-79
2021/09/13 02:55:25;;;;;;;19.63;12.02;;;17.00;99.90;;;;;;7398364;19;20380;-80
2021/09/13 02:57:55;;;;;;;14.75;8.50;;;16.90;99.90;;;;;;7400053;19;20003;-81
2021/09/13 03:00:26;;;;;;;14.50;7.72;;;16.90;99.90;;;;;;7396679;19;20045;-79
2021/09/13 03:03:03;;;;;;;18.40;9.38;;;16.80;99.90;;;;;;7396712;19;20388;-80
2021/09/13 03:05:35;;;;;;;14.32;8.25;;;17.00;99.90;;;;;;7397977;19;20014;-79
2021/09/13 03:08:13;;;;;;;12.07;7.57;;;16.90;99.90;;;;;;7396658;19;20018;-80
2021/09/13 03:10:48;;;;;;;15.50;7.55;;;16.90;99.90;;;;;;7404839;19;20014;-78
2021/09/13 03:13:18;;;;;;;14.13;7.45;;;16.80;99.90;;;;;;7404212;19;20749;-80
2021/09/13 03:15:50;;;;;;;13.23;7.00;;;16.70;99.90;;;;;;7405979;19;20017;-78
2021/09/13 03:18:24;;;;;;;13.13;7.63;;;16.70;99.90;;;;;;7403041;19;20435;-79
2021/09/13 03:20:53;;;;;;;16.08;9.07;;;16.70;99.90;;;;;;7402001;19;20010;-80
2021/09/13 03:23:22;;;;;;;14.63;8.93;;;16.90;99.90;;;;;;7403539;19;20015;-81
2021/09/13 03:25:57;;;;;;;14.18;8.15;;;17.10;99.90;;;;;;7404447;19;20014;-80
2021/09/13 03:28:27;;;;;;;15.70;7.65;;;17.20;99.90;;;;;;7403273;19;20018;-80
2021/09/13 03:30:59;;;;;;;12.93;7.50;;;17.20;99.90;;;;;;7404364;19;20014;-80
2021/09/13 03:33:32;;;;;;;12.48;7.53;;;17.10;99.90;;;;;;7405017;19;20081;-81
2021/09/13 03:36:06;;;;;;;11.98;8.00;;;17.10;99.90;;;;;;7403224;19;20014;-79
2021/09/13 03:38:36;;;;;;;9.82;6.57;;;17.10;99.90;;;;;;7403482;19;20014;-79
2021/09/13 03:41:17;;;;;;;14.80;7.78;;;17.00;99.90;;;;;;7404043;19;20034;-79
2021/09/13 03:43:47;;;;;;;11.50;7.60;;;17.10;99.90;;;;;;7403305;19;20025;-80
2021/09/13 03:46:16;;;;;;;11.00;6.97;;;17.00;99.90;;;;;;7402747;19;20010;-79
2021/09/13 03:49:02;;;;;;;11.90;7.13;;;16.80;99.90;;;;;;7403471;19;20011;-79
2021/09/13 03:51:32;;;;;;;15.63;7.45;;;16.70;99.90;;;;;;7403832;19;20029;-79
2021/09/13 03:54:04;;;;;;;15.48;7.20;;;16.70;99.90;;;;;;7402197;19;20007;-79
2021/09/13 03:56:37;;;;;;;13.35;7.00;;;16.60;99.90;;;;;;7403336;19;20527;-79
2021/09/13 03:59:07;;;;;;;11.98;7.13;;;16.50;99.90;;;;;;7403378;19;20304;-80
2021/09/13 04:01:36;;;;;;;12.77;7.53;;;16.50;99.90;;;;;;7403425;19;20010;-79
2021/09/13 04:04:07;;;;;;;13.15;8.02;;;16.40;99.90;;;;;;7399403;19;20356;-80
2021/09/13 04:06:45;;;;;;;13.30;8.25;;;16.40;99.90;;;;;;7402821;19;20074;-79
2021/09/13 04:12:47;;;;;;;13.60;8.30;;;16.80;99.90;;;;;;7417594;19;20010;-81
2021/09/13 04:15:39;;;;;;;16.23;8.32;;;17.00;99.90;;;;;;7430536;19;20014;-78
2021/09/13 04:18:09;;;;;;;15.43;8.75;;;17.00;99.90;;;;;;7426074;19;20059;-78
2021/09/13 04:20:44;;;;;;;12.98;7.63;;;16.90;99.90;;;;;;7424409;19;20031;-79
2021/09/13 04:23:32;;;;;;;12.98;7.72;;;16.80;99.90;;;;;;7426042;19;20026;-78
2021/09/13 04:26:29;;;;;;;13.80;7.50;;;16.70;99.90;;;;;;7418049;19;20003;-79
2021/09/13 04:29:33;;;;;;;13.10;7.13;;;16.60;99.90;;;;;;7416028;19;20007;-81
2021/09/13 04:32:29;;;;;;;11.68;7.72;;;16.40;99.90;;;;;;7408760;19;20018;-79
2021/09/13 04:35:29;;;;;;;14.27;8.57;;;16.40;99.90;;;;;;7408836;19;20018;-79
2021/09/13 04:38:23;;;;;;;16.75;8.52;;;16.50;99.90;;;;;;7419173;19;20026;-79
2021/09/13 04:40:58;;;;;;;12.80;8.20;;;16.50;99.90;;;;;;7417949;19;20446;-79
2021/09/13 04:44:01;;;;;;;15.35;8.68;;;16.30;99.90;;;;;;7412138;19;20018;-80
2021/09/13 04:46:57;;;;;;;19.67;8.45;;;16.20;99.90;;;;;;7406761;19;20018;-78
2021/09/13 04:49:43;;;;;;;12.45;8.07;;;16.20;99.90;;;;;;7406225;19;20329;-79
2021/09/13 04:52:38;;;;;;;17.33;8.85;;;16.00;99.90;;;;;;7402916;19;20333;-81
2021/09/13 04:55:11;;;;;;;14.07;9.10;;;16.00;99.90;;;;;;7403701;19;20321;-79
2021/09/13 04:57:40;;;;;;;15.48;8.55;;;16.20;99.90;;;;;;7414585;19;20412;-79
2021/09/13 05:00:16;;;;;;;11.98;8.30;;;16.40;99.90;;;;;;7418835;19;20441;-78
2021/09/13 05:02:48;;;;;;;15.57;9.32;;;16.40;99.90;;;;;;7421345;19;20041;-78
2021/09/13 05:05:18;;;;;;;14.48;8.43;;;16.40;99.90;;;;;;7417879;19;20011;-79
2021/09/13 05:07:50;;;;;;;17.20;9.18;;;16.30;99.90;;;;;;7420075;19;20010;-78
2021/09/13 05:10:19;;;;;;;18.48;9.07;;;16.30;99.90;;;;;;7419117;19;20044;-79
2021/09/13 05:12:52;;;;;;;19.02;9.52;;;16.20;99.90;;;;;;7424014;19;20021;-79
2021/09/13 05:15:26;;;;;;;15.95;9.25;;;16.20;99.90;;;;;;7417692;19;20082;-79
2021/09/13 05:17:58;;;;;;;17.23;8.98;;;16.10;99.90;;;;;;7413833;19;20007;-78
2021/09/13 05:20:28;;;;;;;21.00;9.95;;;16.20;99.90;;;;;;7408635;19;20510;-78
2021/09/13 05:23:02;;;;;;;16.55;9.38;;;16.30;99.90;;;;;;7406949;19;20006;-80
2021/09/13 05:25:36;;;;;;;16.05;8.70;;;16.40;99.90;;;;;;7405516;19;20481;-79
2021/09/13 05:28:06;;;;;;;16.25;9.05;;;16.50;99.90;;;;;;7404440;19;20428;-79
2021/09/13 05:30:37;;;;;;;14.88;8.70;;;16.70;99.90;;;;;;7400407;19;20014;-80
2021/09/13 05:33:11;;;;;;;14.63;8.48;;;16.80;99.90;;;;;;7398522;19;20424;-80
2021/09/13 05:35:40;;;;;;;29.63;19.63;;;16.90;99.90;;;;;;7401653;19;20010;-79
2021/09/13 05:38:15;;;;;;;14.98;9.13;;;17.00;99.90;;;;;;7401010;19;20019;-81
2021/09/13 05:40:45;;;;;;;15.45;8.93;;;17.00;99.90;;;;;;7400094;19;20014;-79
2021/09/13 05:43:17;;;;;;;15.40;8.45;;;17.00;99.90;;;;;;7400696;19;20094;-81
2021/09/13 05:45:48;;;;;;;16.15;8.80;;;17.00;99.90;;;;;;7401860;19;20013;-81
2021/09/13 05:48:21;;;;;;;15.75;9.05;;;17.20;99.90;;;;;;7401933;19;20436;-81
2021/09/13 05:50:51;;;;;;;13.23;8.75;;;17.30;99.90;;;;;;7401062;19;20006;-81
2021/09/13 05:53:28;;;;;;;19.77;9.18;;;17.40;99.90;;;;;;7401388;19;20014;-79
2021/09/13 05:56:00;;;;;;;14.45;8.77;;;17.50;99.90;;;;;;7399944;19;20003;-79
2021/09/13 05:58:35;;;;;;;22.17;10.07;;;17.60;99.90;;;;;;7398335;19;20517;-79
2021/09/13 06:01:04;;;;;;;14.35;8.20;;;17.60;99.90;;;;;;7398595;19;20027;-81
2021/09/13 06:03:41;;;;;;;20.98;9.52;;;17.60;99.90;;;;;;7399440;19;20018;-80
2021/09/13 06:06:22;;;;;;;12.30;8.18;;;17.70;99.90;;;;;;7400471;19;20011;-81
2021/09/13 06:08:52;;;;;;;14.82;9.05;;;17.80;99.90;;;;;;7398863;19;20014;-78
2021/09/13 06:11:26;;;;;;;12.75;8.35;;;17.80;99.90;;;;;;7399055;19;20074;-79
2021/09/13 06:13:55;;;;;;;16.95;9.10;;;17.90;99.90;;;;;;7401304;19;20018;-79
2021/09/13 06:16:26;;;;;;;14.80;8.85;;;17.90;99.90;;;;;;7398661;19;20022;-79
2021/09/13 06:19:00;;;;;;;14.68;8.98;;;18.10;99.90;;;;;;7401288;19;20428;-80
2021/09/13 06:21:29;;;;;;;14.98;10.00;;;18.20;99.90;;;;;;7398324;19;20010;-79
2021/09/13 06:23:59;;;;;;;13.25;9.02;;;18.30;99.90;;;;;;7399999;19;20022;-79
2021/09/13 06:26:28;;;;;;;17.33;10.43;;;18.30;99.90;;;;;;7398220;19;20018;-80
2021/09/13 06:29:00;;;;;;;13.20;9.75;;;18.40;99.90;;;;;;7398208;19;20019;-80
2021/09/13 06:31:32;;;;;;;15.32;9.57;;;18.40;99.90;;;;;;7398798;19;20105;-80
2021/09/13 06:34:04;;;;;;;15.75;9.88;;;18.40;99.90;;;;;;7398688;19;20018;-79
2021/09/13 06:36:40;;;;;;;15.68;9.90;;;18.50;99.90;;;;;;7397914;19;20026;-80
2021/09/13 06:39:10;;;;;;;13.75;7.78;;;18.60;99.90;;;;;;7399471;19;20018;-79
2021/09/13 06:41:40;;;;;;;9.95;6.72;;;18.60;99.90;;;;;;7398251;19;20010;-78
2021/09/13 06:44:21;;;;;;;14.15;7.95;;;18.70;99.90;;;;;;7398992;19;20119;-79
2021/09/13 06:47:04;;;;;;;13.32;8.15;;;18.80;99.90;;;;;;7407484;19;20011;-80
2021/09/13 06:49:37;;;;;;;17.35;8.75;;;19.00;99.90;;;;;;7407266;19;20015;-80
2021/09/13 06:52:09;;;;;;;12.00;8.57;;;19.30;99.90;;;;;;7405084;19;20074;-80
2021/09/13 06:54:38;;;;;;;12.38;8.18;;;19.40;99.90;;;;;;7404787;19;20019;-81
2021/09/13 06:57:11;;;;;;;16.73;8.57;;;19.50;99.90;;;;;;7405984;19;20413;-80
2021/09/13 06:59:40;;;;;;;13.60;8.57;;;19.60;99.90;;;;;;7409093;19;20010;-81
2021/09/13 07:02:10;;;;;;;17.52;8.50;;;19.50;99.90;;;;;;7404670;19;20015;-80
2021/09/13 07:04:42;;;;;;;15.20;8.93;;;19.60;99.90;;;;;;7402617;19;20022;-80
2021/09/13 07:07:12;;;;;;;14.27;9.07;;;19.60;99.90;;;;;;7405170;19;20018;-80
2021/09/13 07:09:41;;;;;;;14.65;9.23;;;19.60;99.90;;;;;;7405655;19;20010;-82
2021/09/13 07:12:14;;;;;;;14.32;8.25;;;19.70;99.90;;;;;;7404295;19;20026;-80
2021/09/13 07:14:44;;;;;;;15.10;8.70;;;19.90;99.90;;;;;;7401182;19;20339;-81
2021/09/13 07:17:16;;;;;;;15.75;8.85;;;20.00;99.90;;;;;;7404861;19;20015;-79
2021/09/13 07:19:51;;;;;;;16.33;9.35;;;20.10;99.90;;;;;;7404760;19;20021;-79
2021/09/13 07:22:20;;;;;;;14.40;8.63;;;20.20;99.90;;;;;;7404626;19;20078;-79
2021/09/13 07:24:50;;;;;;;18.45;7.82;;;20.20;99.90;;;;;;7401193;19;20014;-79
2021/09/13 07:27:23;;;;;;;15.32;9.07;;;20.10;99.90;;;;;;7404320;19;20007;-82
2021/09/13 07:29:59;;;;;;;20.52;9.27;;;20.00;99.90;;;;;;7405036;19;20083;-79
2021/09/13 07:32:33;;;;;;;15.40;9.40;;;19.90;99.90;;;;;;7404099;19;20015;-81
2021/09/13 07:35:08;;;;;;;17.05;10.05;;;19.90;99.90;;;;;;7403103;19;20019;-80
2021/09/13 07:37:38;;;;;;;17.15;9.20;;;19.80;99.90;;;;;;7405606;19;20029;-79
2021/09/13 07:40:11;;;;;;;15.85;8.88;;;19.70;99.90;;;;;;7403516;19;20018;-81
2021/09/13 07:42:43;;;;;;;16.65;9.50;;;19.60;99.90;;;;;;7402878;19;20006;-80
2021/09/13 07:45:14;;;;;;;17.77;9.60;;;19.70;99.90;;;;;;7402414;19;20010;-81
2021/09/13 07:47:44;;;;;;;14.57;8.63;;;19.80;99.90;;;;;;7404790;19;20019;-79
2021/09/13 07:50:18;;;;;;;15.98;9.38;;;19.80;99.90;;;;;;7402084;19;20014;-78
2021/09/13 07:52:48;;;;;;;18.33;9.57;;;19.80;99.90;;;;;;7402750;19;20078;-79
2021/09/13 07:55:17;;;;;;;20.13;9.43;;;19.90;99.90;;;;;;7401380;19;20029;-80
2021/09/13 07:57:48;;;;;;;14.80;8.82;;;20.00;99.90;;;;;;7405106;19;20010;-80
2021/09/13 08:00:21;;;;;;;13.63;8.77;;;20.10;99.90;;;;;;7404267;19;20037;-80
2021/09/13 08:02:50;;;;;;;17.48;9.27;;;20.10;99.90;;;;;;7403878;19;20026;-79
2021/09/13 08:05:22;;;;;;;18.65;9.80;;;20.20;99.90;;;;;;7403914;19;20483;-80
2021/09/13 08:07:51;;;;;;;18.13;9.02;;;20.30;99.90;;;;;;7404467;19;20022;-80
2021/09/13 08:10:26;;;;;;;12.48;7.88;;;20.50;99.90;;;;;;7402044;19;20021;-79
2021/09/13 08:12:56;;;;;;;15.52;8.60;;;20.40;99.90;;;;;;7403108;19;20309;-80
2021/09/13 08:15:26;;;;;;;19.17;9.45;;;20.50;99.90;;;;;;7402969;19;20029;-80
2021/09/13 08:18:00;;;;;;;14.15;8.73;;;20.50;99.90;;;;;;7404803;19;20315;-80
2021/09/13 08:20:35;;;;;;;14.48;8.50;;;20.60;99.80;;;;;;7400309;19;20052;-80
2021/09/13 08:23:06;;;;;;;17.15;9.95;;;20.60;99.80;;;;;;7402138;19;20018;-80
2021/09/13 08:25:39;;;;;;;14.13;9.00;;;20.70;99.60;;;;;;7401742;19;20015;-81
2021/09/13 08:28:22;;;;;;;17.48;8.98;;;20.70;99.40;;;;;;7401072;19;20433;-81
2021/09/13 08:30:52;;;;;;;17.00;9.20;;;20.70;99.50;;;;;;7402737;19;20423;-80
2021/09/13 08:33:24;;;;;;;15.43;8.40;;;20.70;99.50;;;;;;7402725;19;20014;-79
2021/09/13 08:35:58;;;;;;;13.77;8.32;;;20.70;99.40;;;;;;7404047;19;20017;-79
2021/09/13 08:38:29;;;;;;;16.25;8.95;;;20.70;99.40;;;;;;7403084;19;20328;-79
2021/09/13 08:41:02;;;;;;;16.58;8.88;;;20.80;99.10;;;;;;7403963;19;20014;-80
2021/09/13 08:43:31;;;;;;;18.30;8.13;;;21.00;98.70;;;;;;7401352;19;20467;-80
2021/09/13 08:46:06;;;;;;;13.77;7.82;;;21.30;98.40;;;;;;7397739;19;20018;-81
2021/09/13 08:48:40;;;;;;;14.63;8.38;;;21.50;98.00;;;;;;7401005;19;20018;-80
2021/09/13 08:51:32;;;;;;;14.00;8.35;;;21.70;97.50;;;;;;7402010;19;20021;-79
2021/09/13 08:54:03;;;;;;;14.60;7.15;;;22.00;96.80;;;;;;7401835;19;20025;-80
2021/09/13 08:56:39;;;;;;;12.63;7.10;;;22.30;96.20;;;;;;7400408;19;20015;-81
2021/09/13 08:59:15;;;;;;;16.25;7.80;;;22.60;95.60;;;;;;7401546;19;20014;-79
2021/09/13 09:01:46;;;;;;;12.13;8.82;;;22.80;95.30;;;;;;7402517;19;20543;-80
2021/09/13 09:04:15;;;;;;;12.48;8.55;;;22.80;94.60;;;;;;7398997;19;20029;-82
2021/09/13 09:06:49;;;;;;;11.80;7.00;;;22.60;94.80;;;;;;7399963;19;20022;-81
2021/09/13 09:09:23;;;;;;;13.15;6.43;;;22.50;94.80;;;;;;7401283;19;20026;-81
2021/09/13 09:12:02;;;;;;;12.75;7.70;;;22.50;94.50;;;;;;7401208;19;20478;-81
2021/09/13 09:14:40;;;;;;;12.50;8.48;;;22.70;94.20;;;;;;7400760;19;20025;-81
2021/09/13 09:17:13;;;;;;;15.73;7.80;;;23.00;93.60;;;;;;7402734;19;20014;-79
2021/09/13 09:19:43;;;;;;;12.30;7.95;;;23.20;93.20;;;;;;7401552;19;20275;-81
2021/09/13 09:22:23;;;;;;;12.57;7.57;;;23.30;92.70;;;;;;7402279;19;20086;-81
2021/09/13 09:24:54;;;;;;;12.07;8.13;;;23.40;92.00;;;;;;7400543;19;20021;-80
2021/09/13 09:27:30;;;;;;;13.70;8.02;;;23.10;92.20;;;;;;7401856;19;20014;-83
2021/09/13 09:30:14;;;;;;;18.40;8.95;;;22.90;92.70;;;;;;7399188;19;20018;-84
2021/09/13 09:32:44;;;;;;;15.10;8.77;;;23.00;92.70;;;;;;7400080;19;20312;-82
2021/09/13 09:35:19;;;;;;;13.13;7.88;;;23.00;92.50;;;;;;7400993;19;20299;-82
2021/09/13 09:37:53;;;;;;;11.15;6.80;;;22.90;92.40;;;;;;7401716;19;20014;-83
2021/09/13 09:40:31;;;;;;;13.38;7.45;;;22.80;92.40;;;;;;7399439;19;20002;-83
2021/09/13 09:43:05;;;;;;;10.40;6.07;;;23.00;92.50;;;;;;7400712;19;20028;-81
2021/09/13 09:45:41;;;;;;;13.38;7.30;;;23.60;91.70;;;;;;7400547;19;20014;-82
2021/09/13 09:48:13;;;;;;;9.93;5.80;;;24.30;90.40;;;;;;7399393;19;20015;-83
2021/09/13 09:50:43;;;;;;;12.55;6.32;;;24.80;88.20;;;;;;7397809;19;20352;-82
2021/09/13 09:53:28;;;;;;;12.48;5.70;;;25.40;85.20;;;;;;7399068;19;20010;-82
2021/09/13 09:56:14;;;;;;;10.00;5.70;;;25.20;84.00;;;;;;7401137;19;20014;-82
2021/09/13 09:58:59;;;;;;;9.13;5.03;;;25.80;82.00;;;;;;7399893;19;20019;-84
2021/09/13 10:01:33;;;;;;;9.13;4.47;;;26.60;79.20;;;;;;7399645;19;20006;-82
2021/09/13 10:04:19;;;;;;;10.80;5.25;;;26.80;76.80;;;;;;7400750;19;20011;-82
2021/09/13 10:06:54;;;;;;;11.85;6.22;;;26.60;75.70;;;;;;7396614;19;20015;-82
2021/09/13 10:09:28;;;;;;;12.40;5.30;;;25.70;76.70;;;;;;7399862;19;20377;-82
2021/09/13 10:12:02;;;;;;;12.57;5.47;;;25.40;77.20;;;;;;7405924;19;20002;-84
2021/09/13 10:14:35;;;;;;;8.85;4.97;;;24.20;79.20;;;;;;7405310;19;20023;-83
2021/09/13 10:17:08;;;;;;;8.98;4.85;;;24.10;80.60;;;;;;7399180;19;20324;-84
2021/09/13 10:19:38;;;;;;;10.02;3.72;;;24.00;80.10;;;;;;7404061;19;20356;-81
2021/09/13 10:22:08;;;;;;;8.48;3.95;;;24.30;80.30;;;;;;7403655;19;20082;-82
2021/09/13 10:24:43;;;;;;;8.43;4.38;;;24.90;78.40;;;;;;7406637;19;20027;-80
2021/09/13 10:27:15;;;;;;;16.30;5.10;;;25.10;77.00;;;;;;7405396;19;20003;-80
2021/09/13 10:29:45;;;;;;;8.38;5.10;;;25.00;76.50;;;;;;7408142;19;20107;-79
2021/09/13 10:32:17;;;;;;;10.05;5.57;;;24.60;77.80;;;;;;7406099;19;20049;-80
2021/09/13 10:34:53;;;;;;;13.65;5.15;;;24.60;79.40;;;;;;7404696;19;20021;-81
2021/09/13 10:37:26;;;;;;;9.27;5.13;;;25.80;76.60;;;;;;7406769;19;20011;-82
2021/09/13 10:40:01;;;;;;;7.22;3.78;;;27.00;73.60;;;;;;7407254;19;20011;-80
2021/09/13 10:42:39;;;;;;;8.63;4.75;;;27.00;71.80;;;;;;7403937;19;20007;-80
2021/09/13 10:45:12;;;;;;;11.43;4.57;;;26.60;71.70;;;;;;7404716;19;20015;-79
2021/09/13 10:47:46;;;;;;;9.10;4.63;;;26.70;71.80;;;;;;7408338;19;20025;-81
2021/09/13 10:50:26;;;;;;;5.47;3.55;;;27.10;70.30;;;;;;7408260;19;20014;-81
2021/09/13 10:53:02;;;;;;;14.02;4.88;;;28.30;68.90;;;;;;7419194;19;20082;-81
2021/09/13 10:55:41;;;;;;;8.35;4.22;;;29.70;64.20;;;;;;7406192;19;20022;-81
2021/09/13 10:58:16;;;;;;;9.77;3.45;;;29.50;62.90;;;;;;7403306;19;20049;-81
2021/09/13 11:00:56;;;;;;;8.80;4.13;;;28.90;63.20;;;;;;7405918;19;20421;-81
2021/09/13 11:03:50;;;;;;;9.00;5.22;;;28.10;64.40;;;;;;7404745;19;20348;-81
2021/09/13 11:06:43;;;;;;;8.05;3.72;;;27.30;65.20;;;;;;7400756;19;20010;-81
2021/09/13 11:09:25;;;;;;;9.43;5.03;;;27.30;67.00;;;;;;7405563;19;20018;-82
2021/09/13 11:12:12;;;;;;;8.52;5.18;;;27.40;65.60;;;;;;7406130;19;20014;-81
2021/09/13 11:14:41;;;;;;;9.07;4.97;;;27.10;66.50;;;;;;7404771;19;20436;-80
2021/09/13 11:17:11;;;;;;;10.20;4.55;;;27.40;65.90;;;;;;7403674;19;20263;-80
2021/09/13 11:19:41;;;;;;;6.25;3.42;;;28.70;62.90;;;;;;7403750;19;20014;-81
2021/09/13 11:22:10;;;;;;;7.68;3.53;;;29.60;61.40;;;;;;7403691;19;20007;-82
2021/09/13 11:24:41;;;;;;;9.48;4.05;;;31.50;58.00;;;;;;7404904;19;20082;-82
2021/09/13 11:27:18;;;;;;;8.60;3.85;;;32.90;55.40;;;;;;7402797;19;20034;-82
2021/09/13 11:29:49;;;;;;;6.10;2.97;;;33.80;52.60;;;;;;7410651;19;20017;-80
2021/09/13 11:32:21;;;;;;;8.20;3.28;;;34.70;50.50;;;;;;7419632;19;20068;-83
2021/09/13 11:34:53;;;;;;;6.13;3.60;;;35.10;48.50;;;;;;7405477;19;20014;-83
2021/09/13 11:37:32;;;;;;;6.95;3.33;;;33.80;48.00;;;;;;7403952;19;20014;-81
2021/09/13 11:40:03;;;;;;;6.82;3.22;;;32.00;50.80;;;;;;7402980;19;20018;-81
2021/09/13 11:42:39;;;;;;;5.88;3.83;;;30.80;53.00;;;;;;7399935;19;20302;-81
2021/09/13 11:45:12;;;;;;;8.15;2.95;;;30.20;53.80;;;;;;7401480;19;20038;-81
2021/09/13 11:47:46;;;;;;;7.13;3.83;;;30.90;53.60;;;;;;7402993;19;20007;-81
2021/09/13 11:50:21;;;;;;;8.70;3.97;;;31.90;50.80;;;;;;7400564;19;20021;-81
2021/09/13 11:52:52;;;;;;;11.52;3.42;;;33.00;49.80;;;;;;7402697;19;20011;-82
2021/09/13 11:55:27;;;;;;;6.00;3.20;;;33.80;48.80;;;;;;7403383;19;20007;-81
2021/09/13 11:58:01;;;;;;;5.82;3.10;;;34.60;48.30;;;;;;7405647;19;20003;-81
2021/09/13 12:00:35;;;;;;;9.80;3.95;;;35.00;48.10;;;;;;7400596;19;20014;-82
2021/09/13 12:03:07;;;;;;;7.07;4.50;;;35.30;47.30;;;;;;7401642;19;20432;-83
2021/09/13 12:05:41;;;;;;;10.63;3.35;;;35.50;46.60;;;;;;7403958;19;20010;-84
2021/09/13 12:08:13;;;;;;;5.13;2.35;;;34.70;48.50;;;;;;7407418;19;20011;-84
2021/09/13 12:10:45;;;;;;;6.25;3.35;;;33.40;52.10;;;;;;7402513;19;20025;-82
2021/09/13 12:13:23;;;;;;;7.15;3.22;;;31.40;50.60;;;;;;7401811;19;20011;-82
2021/09/13 12:15:55;;;;;;;6.40;3.75;;;30.00;53.20;;;;;;7403046;19;20438;-81
2021/09/13 12:18:32;;;;;;;6.15;3.58;;;29.20;54.80;;;;;;7400700;19;20456;-82
2021/09/13 12:21:06;;;;;;;10.30;3.95;;;28.60;55.40;;;;;;7400700;19;20014;-81
2021/09/13 12:23:39;;;;;;;8.38;4.32;;;28.70;55.30;;;;;;7403611;19;20407;-82
2021/09/13 12:26:09;;;;;;;8.48;3.78;;;29.00;55.80;;;;;;7400211;19;20134;-84
2021/09/13 12:28:50;;;;;;;5.43;3.33;;;29.00;55.50;;;;;;7402306;19;20022;-83
2021/09/13 12:31:27;;;;;;;6.40;3.60;;;28.90;55.30;;;;;;7402399;19;20011;-83
2021/09/13 12:34:03;;;;;;;6.65;3.70;;;29.60;54.60;;;;;;7403886;19;20067;-84
2021/09/13 12:36:32;;;;;;;9.35;4.03;;;31.30;51.30;;;;;;7400715;19;20301;-82
2021/09/13 12:39:02;;;;;;;6.13;3.50;;;32.80;48.10;;;;;;7402308;19;20048;-83
2021/09/13 12:41:35;;;;;;;8.20;3.17;;;33.80;47.50;;;;;;7402571;19;20010;-83
2021/09/13 12:44:20;;;;;;;10.68;4.57;;;34.60;45.90;;;;;;7399036;19;20106;-82
2021/09/13 12:46:52;;;;;;;10.52;3.85;;;33.80;46.30;;;;;;7397869;19;20332;-82
2021/09/13 12:49:25;;;;;;;7.25;3.70;;;33.40;48.30;;;;;;7403793;19;20021;-80
2021/09/13 12:51:57;;;;;;;8.60;4.43;;;32.50;49.10;;;;;;7417092;19;20090;-81
2021/09/13 12:54:31;;;;;;;8.30;4.32;;;31.80;49.40;;;;;;7400111;19;20433;-81
2021/09/13 12:57:04;;;;;;;12.20;5.13;;;31.20;50.40;;;;;;7401046;19;20047;-81
2021/09/13 12:59:36;;;;;;;8.82;4.03;;;31.40;50.80;;;;;;7402708;19;20015;-81
2021/09/13 13:02:14;;;;;;;5.10;2.75;;;32.80;49.30;;;;;;7401610;19;20328;-81
2021/09/13 13:04:44;;;;;;;7.03;3.83;;;34.60;47.50;;;;;;7398267;19;20019;-81
2021/09/13 13:07:18;;;;;;;8.27;4.32;;;36.10;44.60;;;;;;7400837;19;20018;-81
2021/09/13 13:09:47;;;;;;;8.68;3.35;;;35.60;44.40;;;;;;7401247;19;20045;-80
2021/09/13 13:12:17;;;;;;;8.43;3.60;;;35.60;44.10;;;;;;7399584;19;20022;-81
2021/09/13 13:14:49;;;;;;;5.35;3.25;;;35.80;42.80;;;;;;7401767;19;20014;-82